createdAt,value
2023-01-03T00:01:41.311Z,67.48
2023-01-03T00:02:49.937Z,67.07
2023-01-03T00:04:00.693Z,67.38
2023-01-03T00:05:10.365Z,67.24
2023-01-03T00:06:27.980Z,66.84
2023-01-03T00:07:37.614Z,66.75
2023-01-03T00:08:47.158Z,66.19
2023-01-03T00:09:55.877Z,66.28
2023-01-03T00:11:25.637Z,66.09
2023-01-03T00:12:36.072Z,66.36
2023-01-03T00:13:45.147Z,66.67
2023-01-03T00:14:54.023Z,66.62
2023-01-03T00:16:02.704Z,66.74
2023-01-03T00:17:13.958Z,66.90
2023-01-03T00:18:22.554Z,66.99
2023-01-03T00:19:34.310Z,67.20
2023-01-03T00:20:44.393Z,67.37
2023-01-03T00:21:54.397Z,66.59
2023-01-03T00:23:05.050Z,66.80
2023-01-03T00:24:15.200Z,67.06
2023-01-03T00:25:24.938Z,66.89
2023-01-03T00:26:34.864Z,66.38
2023-01-03T00:28:59.170Z,66.18
2023-01-03T00:30:10.142Z,66.31
2023-01-03T00:31:20.345Z,66.46
2023-01-03T00:32:28.955Z,66.11
2023-01-03T00:33:40.034Z,66.05
2023-01-03T00:34:48.926Z,66.54
2023-01-03T00:36:08.310Z,66.42
2023-01-03T00:37:17.513Z,66.40
2023-01-03T00:38:26.489Z,66.82
2023-01-03T00:39:35.512Z,67.09
2023-01-03T00:40:44.652Z,67.34
2023-01-03T00:41:54.261Z,67.15
2023-01-03T00:43:21.372Z,67.34
2023-01-03T00:44:30.503Z,67.58
2023-01-03T00:45:39.030Z,67.37
2023-01-03T00:46:47.757Z,66.65
2023-01-03T00:47:57.294Z,67.39
2023-01-03T00:49:07.539Z,67.88
2023-01-03T00:50:18.443Z,67.68
2023-01-03T00:51:31.853Z,67.77
2023-01-03T00:52:40.372Z,68.22
2023-01-03T00:55:08.778Z,68.00
2023-01-03T00:56:21.334Z,68.20
2023-01-03T00:57:30.329Z,68.31
2023-01-03T00:58:40.384Z,69.49
2023-01-03T01:01:07.679Z,69.81
2023-01-03T01:02:19.182Z,70.65
2023-01-03T01:03:28.208Z,71.62
2023-01-03T01:04:37.417Z,72.70
2023-01-03T01:05:46.658Z,73.02
2023-01-03T01:06:59.283Z,73.07
2023-01-03T01:08:08.273Z,73.21
2023-01-03T01:09:23.715Z,72.86
2023-01-03T01:10:32.428Z,72.45
2023-01-03T01:11:41.690Z,72.31
2023-01-03T01:12:53.264Z,72.12
2023-01-03T01:14:04.115Z,71.96
2023-01-03T01:15:13.445Z,71.40
2023-01-03T01:16:26.469Z,71.10
2023-01-03T01:17:35.804Z,70.67
2023-01-03T01:18:47.423Z,69.84
2023-01-03T01:22:31.123Z,70.02
2023-01-03T01:23:41.362Z,69.82
2023-01-03T01:24:51.866Z,69.59
2023-01-03T01:26:02.254Z,69.12
2023-01-03T01:27:11.659Z,69.60
2023-01-03T01:28:23.844Z,69.76
2023-01-03T01:29:33.390Z,70.56
2023-01-03T01:30:42.269Z,70.82
2023-01-03T01:31:50.967Z,70.87
2023-01-03T01:33:00.320Z,70.88
2023-01-03T01:34:12.396Z,71.22
2023-01-03T01:35:21.112Z,71.47
2023-01-03T01:36:33.231Z,71.49
2023-01-03T01:37:42.755Z,71.58
2023-01-03T01:38:59.604Z,71.97
2023-01-03T01:40:10.155Z,72.04
2023-01-03T01:41:23.247Z,72.78
2023-01-03T01:42:51.401Z,72.88
2023-01-03T01:44:18.715Z,73.23
2023-01-03T01:45:27.860Z,72.65
2023-01-03T01:46:36.615Z,72.82
2023-01-03T01:47:53.408Z,73.12
2023-01-03T01:49:06.701Z,73.16
2023-01-03T01:50:26.316Z,72.40
2023-01-03T01:51:36.431Z,72.40
2023-01-03T01:54:13.833Z,73.18
2023-01-03T01:55:29.666Z,72.98
2023-01-03T01:58:01.658Z,72.23
2023-01-03T01:59:11.997Z,72.31
2023-01-03T02:00:23.007Z,72.02
2023-01-03T02:01:33.085Z,71.76
2023-01-03T02:02:43.397Z,71.34
2023-01-03T02:05:13.728Z,71.71
2023-01-03T02:06:23.760Z,72.01
2023-01-03T02:07:33.862Z,71.57
2023-01-03T02:08:42.760Z,72.34
2023-01-03T02:09:55.408Z,72.42
2023-01-03T02:11:23.055Z,72.42
2023-01-03T02:12:56.740Z,72.40
2023-01-03T02:14:26.027Z,72.24
2023-01-03T02:15:50.946Z,72.02
2023-01-03T02:17:28.520Z,72.39
2023-01-03T02:18:49.990Z,71.73
2023-01-03T02:20:09.204Z,72.35
2023-01-03T02:23:05.872Z,72.83
2023-01-03T02:24:40.904Z,72.08
2023-01-03T02:26:21.570Z,71.91
2023-01-03T02:27:58.843Z,71.62
2023-01-03T02:29:39.323Z,71.99
2023-01-03T02:31:03.965Z,71.61
2023-01-03T02:33:54.478Z,70.89
2023-01-03T02:35:12.617Z,71.32
2023-01-03T02:36:48.695Z,71.36
2023-01-03T02:38:04.306Z,70.91
2023-01-03T02:42:36.171Z,70.77
2023-01-03T02:43:51.949Z,70.43
2023-01-03T02:46:43.916Z,70.99
2023-01-03T02:50:50.693Z,71.66
2023-01-03T02:52:03.592Z,71.78
2023-01-03T02:55:52.291Z,71.21
2023-01-03T02:57:06.487Z,70.87
2023-01-03T02:58:19.249Z,71.17
2023-01-03T02:59:31.874Z,71.55
2023-01-03T03:00:44.537Z,70.57
2023-01-03T03:01:54.347Z,70.44
2023-01-03T03:03:09.643Z,70.67
2023-01-03T03:04:21.111Z,70.52
2023-01-03T03:05:34.518Z,71.03
2023-01-03T03:06:56.309Z,70.93
2023-01-03T03:08:05.877Z,71.37
2023-01-03T03:09:14.485Z,71.43
2023-01-03T03:10:43.253Z,70.95
2023-01-03T03:13:34.178Z,71.88
2023-01-03T03:14:46.475Z,71.51
2023-01-03T03:15:59.774Z,71.25
2023-01-03T03:18:53.120Z,70.57
2023-01-03T03:20:19.944Z,70.09
2023-01-03T03:21:50.649Z,70.44
2023-01-03T03:23:21.834Z,70.46
2023-01-03T03:24:50.165Z,70.35
2023-01-03T03:27:41.860Z,70.30
2023-01-03T03:28:54.556Z,70.76
2023-01-03T03:30:07.185Z,70.79
2023-01-03T03:31:19.166Z,71.28
2023-01-03T03:32:30.850Z,70.78
2023-01-03T03:35:01.363Z,72.07
2023-01-03T03:37:31.058Z,72.25
2023-01-03T03:38:45.779Z,71.96
2023-01-03T03:40:15.470Z,71.95
2023-01-03T03:41:59.547Z,72.36
2023-01-03T03:43:47.750Z,72.95
2023-01-03T03:45:01.567Z,72.93
2023-01-03T03:46:16.299Z,73.04
2023-01-03T03:47:33.067Z,72.89
2023-01-03T03:49:12.618Z,72.64
2023-01-03T03:51:50.857Z,73.38
2023-01-03T03:53:03.346Z,73.77
2023-01-03T03:54:17.117Z,73.24
2023-01-03T03:56:49.430Z,72.87
2023-01-03T03:59:19.669Z,73.44
2023-01-03T04:00:35.741Z,72.95
2023-01-03T04:01:47.236Z,73.51
2023-01-03T04:03:05.666Z,73.93
2023-01-03T04:05:40.381Z,74.29
2023-01-03T04:06:53.871Z,73.83
2023-01-03T04:08:04.182Z,74.51
2023-01-03T04:09:13.704Z,74.11
2023-01-03T04:10:24.553Z,74.59
2023-01-03T04:11:35.384Z,74.20
2023-01-03T04:12:44.518Z,72.54
2023-01-03T04:13:53.795Z,73.30
2023-01-03T04:15:06.828Z,72.81
2023-01-03T04:16:16.266Z,73.00
2023-01-03T04:17:25.072Z,72.41
2023-01-03T04:18:34.686Z,72.81
2023-01-03T04:19:43.758Z,73.01
2023-01-03T04:20:53.812Z,72.79
2023-01-03T04:22:02.899Z,73.07
2023-01-03T04:23:11.926Z,73.67
2023-01-03T04:24:21.761Z,73.11
2023-01-03T04:25:31.829Z,72.95
2023-01-03T04:26:40.866Z,73.03
2023-01-03T04:29:11.911Z,73.19
2023-01-03T04:30:21.943Z,73.47
2023-01-03T04:31:32.683Z,74.04
2023-01-03T04:32:41.343Z,74.50
2023-01-03T04:33:51.142Z,73.71
2023-01-03T04:35:00.069Z,73.51
2023-01-03T04:36:10.265Z,72.70
2023-01-03T04:37:18.911Z,72.54
2023-01-03T04:38:27.795Z,72.97
2023-01-03T04:39:36.410Z,72.51
2023-01-03T04:40:47.795Z,72.38
2023-01-03T04:41:57.394Z,72.89
2023-01-03T04:43:26.416Z,72.96
2023-01-03T04:44:35.395Z,72.86
2023-01-03T04:45:44.445Z,72.30
2023-01-03T04:46:53.648Z,72.27
2023-01-03T04:48:03.098Z,71.89
2023-01-03T04:49:11.724Z,72.24
2023-01-03T04:50:22.626Z,71.59
2023-01-03T04:51:32.589Z,70.74
2023-01-03T04:52:42.244Z,70.21
2023-01-03T04:53:51.380Z,70.78
2023-01-03T04:55:00.463Z,71.08
2023-01-03T04:56:10.316Z,70.96
2023-01-03T04:57:19.326Z,70.95
2023-01-03T04:58:29.275Z,70.42
2023-01-03T04:59:37.923Z,69.96
2023-01-03T05:00:47.662Z,70.39
2023-01-03T05:01:58.500Z,70.08
2023-01-03T05:03:08.646Z,70.48
2023-01-03T05:04:18.914Z,70.70
2023-01-03T05:06:43.446Z,70.22
2023-01-03T05:07:52.145Z,68.41
2023-01-03T05:09:00.768Z,68.34
2023-01-03T05:11:24.617Z,69.27
2023-01-03T05:12:33.147Z,68.71
2023-01-03T05:13:42.004Z,68.93
2023-01-03T05:14:50.644Z,69.90
2023-01-03T05:16:12.375Z,70.76
2023-01-03T05:17:22.682Z,70.11
2023-01-03T05:18:31.435Z,71.01
2023-01-03T05:19:58.583Z,71.02
2023-01-03T05:23:31.312Z,71.24
2023-01-03T05:24:59.737Z,70.80
2023-01-03T05:26:16.944Z,71.06
2023-01-03T05:27:26.588Z,71.31
2023-01-03T05:28:36.650Z,71.33
2023-01-03T05:29:48.918Z,71.08
2023-01-03T05:31:00.180Z,70.00
2023-01-03T05:32:09.317Z,70.42
2023-01-03T05:33:19.248Z,70.16
2023-01-03T05:34:27.800Z,69.25
2023-01-03T05:35:38.414Z,69.89
2023-01-03T05:36:47.919Z,70.03
2023-01-03T05:37:56.774Z,70.02
2023-01-03T05:39:06.570Z,69.66
2023-01-03T05:40:16.529Z,70.37
2023-01-03T05:41:43.760Z,69.71
2023-01-03T05:42:53.825Z,70.09
2023-01-03T05:44:04.033Z,69.48
2023-01-03T05:45:13.722Z,70.02
2023-01-03T05:47:38.728Z,71.00
2023-01-03T05:48:48.475Z,70.88
2023-01-03T05:49:57.002Z,70.31
2023-01-03T05:51:06.482Z,70.19
2023-01-03T05:52:15.097Z,70.35
2023-01-03T05:53:24.538Z,69.31
2023-01-03T05:54:33.128Z,69.56
2023-01-03T05:56:57.148Z,69.89
2023-01-03T05:58:06.874Z,69.90
2023-01-03T05:59:15.578Z,70.67
2023-01-03T06:00:27.193Z,70.27
2023-01-03T06:01:36.679Z,70.74
2023-01-03T06:02:46.364Z,70.38
2023-01-03T06:03:55.276Z,69.90
2023-01-03T06:05:06.668Z,69.73
2023-01-03T06:06:18.472Z,69.60
2023-01-03T06:07:29.463Z,69.94
2023-01-03T06:08:41.350Z,70.45
2023-01-03T06:09:50.941Z,70.26
2023-01-03T06:10:59.669Z,71.31
2023-01-03T06:12:08.802Z,71.72
2023-01-03T06:13:17.450Z,71.25
2023-01-03T06:15:41.716Z,71.43
2023-01-03T06:17:09.549Z,72.92
2023-01-03T06:18:18.325Z,73.39
2023-01-03T06:19:27.295Z,72.52
2023-01-03T06:20:36.823Z,72.20
2023-01-03T06:23:00.643Z,71.42
2023-01-03T06:24:09.870Z,70.37
2023-01-03T06:25:19.603Z,71.17
2023-01-03T06:26:28.882Z,70.29
2023-01-03T06:27:37.826Z,70.07
2023-01-03T06:30:02.842Z,67.98
2023-01-03T06:31:13.118Z,68.55
2023-01-03T06:33:39.497Z,67.06
2023-01-03T06:34:48.141Z,66.57
2023-01-03T06:35:56.825Z,66.17
2023-01-03T06:37:06.512Z,66.80
2023-01-03T06:38:16.077Z,65.58
2023-01-03T06:40:45.838Z,67.72
2023-01-03T06:43:09.307Z,69.13
2023-01-03T06:44:17.964Z,69.79
2023-01-03T06:45:44.791Z,69.79
2023-01-03T06:47:13.023Z,70.50
2023-01-03T06:48:40.426Z,70.83
2023-01-03T06:50:07.278Z,71.69
2023-01-03T06:51:38.375Z,71.62
2023-01-03T06:53:06.337Z,72.10
2023-01-03T06:54:26.640Z,71.08
2023-01-03T06:56:51.841Z,70.48
2023-01-03T06:58:00.377Z,70.61
2023-01-03T06:59:08.990Z,70.35
2023-01-03T07:00:21.986Z,70.31
2023-01-03T07:01:30.850Z,69.00
2023-01-03T07:02:40.980Z,69.46
2023-01-03T07:03:50.364Z,69.12
2023-01-03T07:04:59.445Z,68.66
2023-01-03T07:06:08.136Z,68.89
2023-01-03T07:08:33.972Z,69.51
2023-01-03T07:09:43.124Z,69.68
2023-01-03T07:10:52.081Z,70.16
2023-01-03T07:12:03.483Z,70.21
2023-01-03T07:13:30.270Z,70.61
2023-01-03T07:14:38.938Z,71.49
2023-01-03T07:17:03.011Z,70.77
2023-01-03T07:18:11.722Z,70.19
2023-01-03T07:19:20.256Z,70.60
2023-01-03T07:20:29.291Z,70.70
2023-01-03T07:21:39.485Z,70.19
2023-01-03T07:22:48.572Z,70.14
2023-01-03T07:24:01.861Z,69.76
2023-01-03T07:25:11.637Z,68.51
2023-01-03T07:26:21.149Z,68.47
2023-01-03T07:28:44.768Z,69.18
2023-01-03T07:29:53.731Z,69.10
2023-01-03T07:32:21.733Z,70.80
2023-01-03T07:33:31.918Z,71.14
2023-01-03T07:34:40.915Z,71.50
2023-01-03T07:35:51.984Z,71.37
2023-01-03T07:37:02.102Z,71.93
2023-01-03T07:38:14.134Z,71.55
2023-01-03T07:39:22.647Z,71.37
2023-01-03T07:40:34.282Z,71.52
2023-01-03T07:42:01.028Z,71.24
2023-01-03T07:43:29.553Z,71.56
2023-01-03T07:44:38.072Z,70.93
2023-01-03T07:45:47.177Z,70.97
2023-01-03T07:46:56.986Z,70.82
2023-01-03T07:48:06.311Z,70.95
2023-01-03T07:49:14.843Z,70.34
2023-01-03T07:50:24.623Z,70.74
2023-01-03T07:51:34.450Z,70.36
2023-01-03T07:52:43.978Z,69.80
2023-01-03T07:53:53.235Z,69.54
2023-01-03T07:55:02.548Z,69.50
2023-01-03T07:56:15.184Z,69.52
2023-01-03T07:57:23.806Z,69.90
2023-01-03T07:58:33.229Z,70.12
2023-01-03T07:59:42.894Z,70.34
2023-01-03T08:00:52.623Z,70.21
2023-01-03T08:02:02.414Z,70.28
2023-01-03T08:03:12.044Z,70.23
2023-01-03T08:04:22.043Z,69.84
2023-01-03T08:05:34.522Z,69.56
2023-01-03T08:06:51.247Z,69.31
2023-01-03T08:08:02.089Z,69.17
2023-01-03T08:09:33.122Z,69.05
2023-01-03T08:11:01.365Z,68.91
2023-01-03T08:12:29.352Z,68.94
2023-01-03T08:13:37.968Z,68.85
2023-01-03T08:14:50.850Z,69.28
2023-01-03T08:15:59.381Z,69.57
2023-01-03T08:17:08.165Z,69.69
2023-01-03T08:18:21.705Z,69.92
2023-01-03T08:19:31.369Z,70.08
2023-01-03T08:21:55.181Z,70.56
2023-01-03T08:23:04.297Z,70.62
2023-01-03T08:25:27.989Z,70.04
2023-01-03T08:26:37.317Z,69.39
2023-01-03T08:27:50.152Z,69.52
2023-01-03T08:28:56.690Z,69.06
2023-01-03T08:30:06.722Z,69.02
2023-01-03T08:32:34.595Z,68.67
2023-01-03T08:35:10.827Z,69.31
2023-01-03T08:36:23.174Z,69.58
2023-01-03T08:37:31.884Z,69.71
2023-01-03T08:40:03.462Z,69.72
2023-01-03T08:41:16.017Z,69.91
2023-01-03T08:42:26.364Z,70.18
2023-01-03T08:43:37.696Z,69.91
2023-01-03T08:46:06.545Z,70.59
2023-01-03T08:47:16.298Z,70.36
2023-01-03T08:48:25.429Z,70.53
2023-01-03T08:49:34.720Z,70.43
2023-01-03T08:50:43.935Z,69.88
2023-01-03T08:51:53.260Z,69.88
2023-01-03T08:53:02.178Z,69.58
2023-01-03T08:54:11.873Z,69.48
2023-01-03T08:55:21.671Z,69.67
2023-01-03T08:57:45.583Z,70.01
2023-01-03T09:00:13.373Z,69.80
2023-01-03T09:01:24.461Z,69.79
2023-01-03T09:02:35.335Z,69.09
2023-01-03T09:03:44.648Z,69.50
2023-01-03T09:04:54.478Z,68.97
2023-01-03T09:06:05.510Z,68.98
2023-01-03T09:07:15.358Z,69.02
2023-01-03T09:08:24.349Z,69.33
2023-01-03T09:09:33.711Z,69.45
2023-01-03T09:11:57.962Z,69.55
2023-01-03T09:13:07.114Z,69.69
2023-01-03T09:14:16.030Z,69.81
2023-01-03T09:15:25.645Z,69.46
2023-01-03T09:16:34.576Z,69.71
2023-01-03T09:17:45.627Z,69.83
2023-01-03T09:18:54.249Z,70.04
2023-01-03T09:20:03.478Z,70.31
2023-01-03T09:22:29.057Z,70.55
2023-01-03T09:23:38.548Z,69.97
2023-01-03T09:24:47.647Z,69.61
2023-01-03T09:25:57.351Z,69.09
2023-01-03T09:27:06.455Z,68.49
2023-01-03T09:28:15.578Z,68.57
2023-01-03T09:29:24.241Z,68.07
2023-01-03T09:30:33.450Z,68.44
2023-01-03T09:31:42.019Z,68.77
2023-01-03T09:32:51.557Z,68.55
2023-01-03T09:35:18.237Z,68.94
2023-01-03T09:37:48.698Z,69.15
2023-01-03T09:38:54.891Z,69.09
2023-01-03T09:40:04.857Z,69.20
2023-01-03T09:42:54.286Z,69.32
2023-01-03T09:44:04.443Z,68.98
2023-01-03T09:45:18.023Z,69.04
2023-01-03T09:46:30.518Z,69.17
2023-01-03T09:47:39.585Z,69.02
2023-01-03T09:51:49.187Z,68.94
2023-01-03T09:54:55.905Z,69.40
2023-01-03T09:56:23.696Z,68.99
2023-01-03T09:57:53.665Z,69.18
2023-01-03T09:59:33.717Z,69.05
2023-01-03T10:01:04.892Z,69.20
2023-01-03T10:02:37.499Z,69.02
2023-01-03T10:05:22.070Z,69.04
2023-01-03T10:08:05.517Z,68.91
2023-01-03T10:09:39.935Z,68.83
2023-01-03T10:10:55.905Z,68.83
2023-01-03T10:14:07.206Z,69.14
2023-01-03T10:15:32.891Z,68.78
2023-01-03T10:16:47.439Z,68.84
2023-01-03T10:18:09.449Z,68.80
2023-01-03T10:21:09.436Z,68.55
2023-01-03T10:22:22.221Z,68.60
2023-01-03T10:23:32.422Z,68.65
2023-01-03T10:26:01.423Z,68.29
2023-01-03T10:27:21.515Z,68.13
2023-01-03T10:30:03.198Z,68.32
2023-01-03T10:32:50.466Z,68.44
2023-01-03T10:33:59.328Z,68.39
2023-01-03T10:35:24.107Z,68.00
2023-01-03T10:36:33.051Z,68.15
2023-01-03T10:37:43.060Z,68.03
2023-01-03T10:39:06.771Z,67.96
2023-01-03T10:40:18.320Z,67.92
2023-01-03T10:41:33.666Z,67.72
2023-01-03T10:42:43.384Z,67.51
2023-01-03T10:44:00.818Z,67.64
2023-01-03T10:45:19.674Z,67.66
2023-01-03T10:48:00.036Z,67.51
2023-01-03T10:50:38.383Z,67.10
2023-01-03T10:52:04.366Z,67.29
2023-01-03T10:53:16.301Z,66.97
2023-01-03T10:56:08.261Z,66.83
2023-01-03T10:59:18.923Z,66.81
2023-01-03T11:02:14.882Z,66.85
2023-01-03T11:03:25.261Z,66.82
2023-01-03T11:04:37.533Z,67.01
2023-01-03T11:06:06.180Z,67.03
2023-01-03T11:08:40.973Z,66.72
2023-01-03T11:09:52.872Z,66.84
2023-01-03T11:11:03.004Z,66.92
2023-01-03T11:13:46.430Z,67.18
2023-01-03T11:16:16.423Z,67.41
2023-01-03T11:17:29.290Z,67.43
2023-01-03T11:18:38.919Z,67.51
2023-01-03T11:23:03.393Z,67.11
2023-01-03T11:24:29.025Z,67.10
2023-01-03T11:27:38.701Z,67.10
2023-01-03T11:29:21.316Z,67.02
2023-01-03T11:30:50.118Z,67.27
2023-01-03T11:32:24.227Z,67.31
2023-01-03T11:33:40.109Z,67.63
2023-01-03T11:35:25.624Z,67.49
2023-01-03T11:38:10.540Z,67.65
2023-01-03T11:40:56.664Z,67.45
2023-01-03T11:42:09.443Z,67.45
2023-01-03T11:43:46.444Z,67.58
2023-01-03T11:45:04.816Z,67.59
2023-01-03T11:46:23.737Z,67.93
2023-01-03T11:47:57.944Z,67.95
2023-01-03T11:49:16.451Z,68.09
2023-01-03T11:50:41.666Z,67.93
2023-01-03T11:51:56.785Z,67.96
2023-01-03T11:56:26.657Z,67.93
2023-01-03T11:57:48.736Z,67.71
2023-01-03T11:59:09.448Z,67.57
2023-01-03T12:02:21.633Z,67.88
2023-01-03T12:03:54.221Z,67.86
2023-01-03T12:05:15.963Z,67.87
2023-01-03T12:08:43.297Z,67.66
2023-01-03T12:11:39.440Z,67.71
2023-01-03T12:12:52.770Z,67.49
2023-01-03T12:14:15.020Z,67.57
2023-01-03T12:17:04.586Z,67.52
2023-01-03T12:18:16.876Z,67.44
2023-01-03T12:21:22.580Z,67.52
2023-01-03T12:24:00.925Z,67.57
2023-01-03T12:25:22.776Z,67.34
2023-01-03T12:26:35.369Z,67.37
2023-01-03T12:27:48.624Z,67.55
2023-01-03T12:30:53.601Z,67.40
2023-01-03T12:33:33.762Z,67.45
2023-01-03T12:35:04.753Z,67.51
2023-01-03T12:36:32.833Z,67.23
2023-01-03T12:37:45.141Z,67.19
2023-01-03T12:39:19.768Z,67.38
2023-01-03T12:42:13.323Z,67.40
2023-01-03T12:44:53.755Z,67.43
2023-01-03T12:46:12.322Z,67.59
2023-01-03T12:49:08.834Z,67.29
2023-01-03T12:50:40.090Z,67.33
2023-01-03T12:51:48.661Z,67.36
2023-01-03T12:53:06.589Z,66.94
2023-01-03T12:56:06.353Z,67.45
2023-01-03T12:59:02.640Z,67.26
2023-01-03T13:00:39.162Z,66.93
2023-01-03T13:01:59.547Z,66.89
2023-01-03T13:04:42.209Z,66.99
2023-01-03T13:07:32.723Z,66.78
2023-01-03T13:08:58.642Z,66.85
2023-01-03T13:11:35.776Z,66.51
2023-01-03T13:15:36.539Z,66.17
2023-01-03T13:16:47.204Z,66.05
2023-01-03T13:19:39.940Z,66.00
2023-01-03T13:22:43.795Z,65.75
2023-01-03T13:23:59.819Z,65.69
2023-01-03T13:26:51.629Z,65.56
2023-01-03T13:28:08.672Z,65.50
2023-01-03T13:31:11.573Z,65.36
2023-01-03T13:34:17.981Z,64.90
2023-01-03T13:35:35.985Z,64.88
2023-01-03T13:37:08.227Z,64.76
2023-01-03T13:38:36.099Z,64.60
2023-01-03T13:39:54.202Z,64.32
2023-01-03T13:41:17.714Z,64.34
2023-01-03T13:43:44.331Z,64.82
2023-01-03T13:45:18.452Z,64.85
2023-01-03T13:46:31.344Z,64.54
2023-01-03T13:47:49.591Z,64.71
2023-01-03T13:49:01.941Z,64.76
2023-01-03T13:50:32.292Z,64.61
2023-01-03T13:51:47.920Z,64.38
2023-01-03T13:53:03.289Z,64.28
2023-01-03T13:54:15.547Z,64.15
2023-01-03T13:55:54.793Z,64.16
2023-01-03T13:57:05.494Z,64.05
2023-01-03T13:58:33.429Z,63.71
2023-01-03T13:59:44.252Z,63.79
2023-01-03T14:01:05.590Z,63.41
2023-01-03T14:02:14.632Z,62.86
2023-01-03T14:03:50.352Z,63.03
2023-01-03T14:05:20.910Z,62.76
2023-01-03T14:06:40.712Z,62.73
2023-01-03T14:08:05.601Z,62.60
2023-01-03T14:09:36.844Z,62.63
2023-01-03T14:10:55.739Z,62.54
2023-01-03T14:12:11.108Z,62.44
2023-01-03T14:13:23.852Z,62.80
2023-01-03T14:14:36.618Z,62.85
2023-01-03T14:15:49.050Z,62.85
2023-01-03T14:16:59.534Z,62.87
2023-01-03T14:19:42.881Z,62.60
2023-01-03T14:20:55.185Z,62.54
2023-01-03T14:24:36.464Z,62.43
2023-01-03T14:25:45.752Z,62.36
2023-01-03T14:28:20.773Z,62.38
2023-01-03T14:29:30.179Z,62.26
2023-01-03T14:30:40.291Z,62.03
2023-01-03T14:31:54.826Z,62.35
2023-01-03T14:33:03.622Z,62.47
2023-01-03T14:36:03.437Z,62.02
2023-01-03T14:37:15.652Z,61.77
2023-01-03T14:39:59.209Z,61.85
2023-01-03T14:42:28.397Z,61.83
2023-01-03T14:43:37.057Z,61.74
2023-01-03T14:46:15.781Z,61.63
2023-01-03T14:48:50.176Z,61.53
2023-01-03T14:50:02.299Z,61.23
2023-01-03T14:51:12.184Z,61.21
2023-01-03T14:52:30.998Z,61.14
2023-01-03T14:53:41.547Z,61.11
2023-01-03T14:54:55.215Z,60.96
2023-01-03T14:56:04.430Z,60.70
2023-01-03T14:57:20.041Z,60.68
2023-01-03T14:58:33.656Z,60.56
2023-01-03T14:59:42.813Z,60.78
2023-01-03T15:02:12.303Z,60.44
2023-01-03T15:03:22.474Z,60.08
2023-01-03T15:04:31.256Z,59.99
2023-01-03T15:05:40.906Z,60.09
2023-01-03T15:07:11.047Z,59.67
2023-01-03T15:08:25.935Z,59.83
2023-01-03T15:11:03.261Z,59.41
2023-01-03T15:12:14.896Z,59.22
2023-01-03T15:14:58.538Z,59.23
2023-01-03T15:17:51.988Z,59.11
2023-01-03T15:19:22.752Z,58.77
2023-01-03T15:20:39.278Z,58.90
2023-01-03T15:21:50.124Z,59.05
2023-01-03T15:22:59.032Z,59.00
2023-01-03T15:25:38.431Z,59.09
2023-01-03T15:26:50.403Z,59.09
2023-01-03T15:29:45.897Z,58.93
2023-01-03T15:31:00.247Z,59.09
2023-01-03T15:32:10.934Z,58.93
2023-01-03T15:33:32.996Z,58.70
2023-01-03T15:34:41.850Z,58.69
2023-01-03T15:35:54.032Z,58.69
2023-01-03T15:39:56.004Z,58.80
2023-01-03T15:41:47.960Z,58.69
2023-01-03T15:43:19.850Z,58.71
2023-01-03T15:44:28.873Z,59.05
2023-01-03T15:45:40.510Z,59.03
2023-01-03T15:48:27.723Z,59.35
2023-01-03T15:49:43.910Z,59.27
2023-01-03T15:50:57.400Z,59.37
2023-01-03T15:52:05.931Z,59.15
2023-01-03T15:53:24.932Z,59.42
2023-01-03T15:54:34.396Z,59.45
2023-01-03T15:55:45.196Z,59.47
2023-01-03T15:57:05.554Z,59.56
2023-01-03T15:58:14.574Z,59.91
2023-01-03T16:00:42.003Z,59.93
2023-01-03T16:01:51.510Z,60.11
2023-01-03T16:03:01.243Z,60.42
2023-01-03T16:04:11.296Z,60.55
2023-01-03T16:05:22.984Z,60.72
2023-01-03T16:06:33.160Z,60.76
2023-01-03T16:07:42.375Z,60.80
2023-01-03T16:08:52.273Z,61.11
2023-01-03T16:10:00.833Z,61.34
2023-01-03T16:11:20.757Z,61.59
2023-01-03T16:13:52.299Z,62.27
2023-01-03T16:15:03.427Z,62.37
2023-01-03T16:16:14.299Z,62.54
2023-01-03T16:17:25.343Z,62.74
2023-01-03T16:18:48.246Z,62.93
2023-01-03T16:19:59.818Z,63.15
2023-01-03T16:21:09.189Z,63.28
2023-01-03T16:23:34.675Z,63.56
2023-01-03T16:24:43.215Z,63.57
2023-01-03T16:25:52.409Z,63.80
2023-01-03T16:28:19.977Z,64.20
2023-01-03T16:29:29.218Z,64.27
2023-01-03T16:30:38.577Z,64.27
2023-01-03T16:33:02.934Z,64.71
2023-01-03T16:34:24.610Z,64.81
2023-01-03T16:35:34.813Z,64.78
2023-01-03T16:36:46.875Z,64.86
2023-01-03T16:37:55.519Z,65.01
2023-01-03T16:40:24.182Z,64.89
2023-01-03T16:41:33.071Z,64.95
2023-01-03T16:42:41.573Z,65.16
2023-01-03T16:43:52.337Z,65.16
2023-01-03T16:45:01.024Z,65.06
2023-01-03T16:46:12.616Z,65.14
2023-01-03T16:47:24.031Z,65.22
2023-01-03T16:48:39.987Z,65.11
2023-01-03T16:51:19.244Z,65.05
2023-01-03T16:53:52.502Z,65.08
2023-01-03T16:55:19.991Z,65.05
2023-01-03T16:56:29.298Z,65.04
2023-01-03T16:57:37.930Z,64.97
2023-01-03T17:00:05.376Z,65.23
2023-01-03T17:01:14.123Z,65.27
2023-01-03T17:02:24.272Z,65.24
2023-01-03T17:03:38.142Z,65.12
2023-01-03T17:04:45.645Z,65.28
2023-01-03T17:05:55.603Z,65.15
2023-01-03T17:07:04.996Z,65.28
2023-01-03T17:09:48.241Z,64.93
2023-01-03T17:11:04.575Z,64.67
2023-01-03T17:13:41.614Z,64.77
2023-01-03T17:14:51.519Z,64.81
2023-01-03T17:16:02.410Z,64.57
2023-01-03T17:17:12.961Z,65.13
2023-01-03T17:18:30.649Z,64.99
2023-01-03T17:22:16.570Z,65.25
2023-01-03T17:23:28.212Z,65.08
2023-01-03T17:24:37.161Z,65.11
2023-01-03T17:25:47.378Z,64.95
2023-01-03T17:27:07.787Z,64.84
2023-01-03T17:28:17.333Z,64.66
2023-01-03T17:30:43.704Z,63.98
2023-01-03T17:34:30.674Z,63.60
2023-01-03T17:35:39.845Z,63.47
2023-01-03T17:36:49.401Z,63.36
2023-01-03T17:38:24.735Z,63.27
2023-01-03T17:39:11.672Z,63.55
2023-01-03T17:40:31.089Z,63.08
2023-01-03T17:41:37.572Z,62.86
2023-01-03T17:42:49.913Z,62.62
2023-01-03T17:43:58.442Z,61.98
2023-01-03T17:45:30.327Z,62.01
2023-01-03T17:46:58.610Z,62.02
2023-01-03T17:49:51.760Z,61.19
2023-01-03T17:51:02.717Z,61.23
2023-01-03T17:52:12.965Z,61.09
2023-01-03T17:53:23.178Z,61.07
2023-01-03T17:54:38.309Z,60.61
2023-01-03T17:57:06.994Z,60.30
2023-01-03T17:59:39.576Z,60.18
2023-01-03T18:00:49.473Z,60.29
2023-01-03T18:01:59.148Z,60.15
2023-01-03T18:03:09.832Z,60.31
2023-01-03T18:04:21.287Z,60.09
2023-01-03T18:06:47.816Z,59.90
2023-01-03T18:07:59.822Z,59.60
2023-01-03T18:09:12.083Z,59.14
2023-01-03T18:11:39.229Z,58.83
2023-01-03T18:12:48.348Z,58.75
2023-01-03T18:13:57.053Z,58.46
2023-01-03T18:16:29.640Z,58.72
2023-01-03T18:17:38.263Z,58.48
2023-01-03T18:20:04.710Z,58.51
2023-01-03T18:22:44.076Z,58.26
2023-01-03T18:24:01.904Z,58.21
2023-01-03T18:26:44.012Z,58.32
2023-01-03T18:28:00.160Z,58.22
2023-01-03T18:30:28.526Z,58.39
2023-01-03T18:31:37.708Z,58.25
2023-01-03T18:32:46.568Z,58.11
2023-01-03T18:33:56.885Z,58.20
2023-01-03T18:35:06.763Z,58.10
2023-01-03T18:37:36.845Z,57.81
2023-01-03T18:38:45.360Z,57.97
2023-01-03T18:39:54.287Z,57.85
2023-01-03T18:41:05.706Z,57.45
2023-01-03T18:42:33.375Z,57.53
2023-01-03T18:43:41.992Z,57.08
2023-01-03T18:44:50.739Z,57.30
2023-01-03T18:46:01.903Z,57.15
2023-01-03T18:47:12.847Z,57.23
2023-01-03T18:48:22.001Z,57.21
2023-01-03T18:49:30.676Z,57.37
2023-01-03T18:50:43.405Z,56.99
2023-01-03T18:51:53.722Z,56.99
2023-01-03T18:53:04.505Z,57.21
2023-01-03T18:54:17.473Z,57.17
2023-01-03T18:56:45.915Z,57.08
2023-01-03T18:57:56.175Z,57.06
2023-01-03T18:59:22.992Z,57.22
2023-01-03T19:01:48.500Z,56.86
2023-01-03T19:02:58.063Z,56.74
2023-01-03T19:04:07.094Z,56.93
2023-01-03T19:05:18.853Z,57.14
2023-01-03T19:07:49.522Z,56.76
2023-01-03T19:09:01.493Z,56.74
2023-01-03T19:10:22.832Z,56.82
2023-01-03T19:11:37.839Z,56.63
2023-01-03T19:12:47.899Z,56.63
2023-01-03T19:13:59.423Z,56.77
2023-01-03T19:15:27.740Z,56.66
2023-01-03T19:16:58.687Z,56.37
2023-01-03T19:18:13.241Z,56.50
2023-01-03T19:19:22.000Z,56.31
2023-01-03T19:20:32.003Z,56.48
2023-01-03T19:21:43.463Z,56.54
2023-01-03T19:22:55.412Z,56.60
2023-01-03T19:24:23.318Z,56.31
2023-01-03T19:25:33.541Z,56.58
2023-01-03T19:28:05.306Z,56.56
2023-01-03T19:30:43.915Z,56.39
2023-01-03T19:31:56.346Z,56.72
2023-01-03T19:33:08.144Z,57.05
2023-01-03T19:34:19.105Z,56.38
2023-01-03T19:35:27.642Z,56.53